Time;durP1;ratioP1;P1;durP2;ratioP2;P2;SDS_P1;SDS_P2;PMS_P1;PMS_P2;Temp;Humidity;BMP_temperature;BMP_pressure;BME280_temperature;BME280_humidity;BME280_pressure;Samples;Min_cycle;Max_cycle;Signal;HPM_P1;HPM_P2
2023/02/18 00:01:42;;;;;;;41.20;19.90;;;;;;;4.42;100.00;99093.49;105032;1261;68504;-62
2023/02/18 00:04:11;;;;;;;42.60;22.70;;;;;;;4.38;100.00;99088.05;105279;1249;71420;-60
2023/02/18 00:06:40;;;;;;;38.50;21.30;;;;;;;4.38;100.00;99082.33;105029;1252;60873;-61
2023/02/18 00:09:09;;;;;;;46.50;23.70;;;;;;;4.38;100.00;99076.77;105142;1253;60748;-61
2023/02/18 00:11:38;;;;;;;40.40;21.90;;;;;;;4.38;100.00;99068.77;105101;1253;72672;-61
2023/02/18 00:14:10;;;;;;;45.50;23.90;;;;;;;4.39;100.00;99065.46;105197;1247;68242;-61
2023/02/18 00:16:40;;;;;;;43.20;23.60;;;;;;;4.37;100.00;99063.42;104925;1255;72260;-61
2023/02/18 00:19:17;;;;;;;43.00;22.20;;;;;;;4.35;100.00;99062.44;105091;1255;60852;-62
2023/02/18 00:21:45;;;;;;;45.40;24.50;;;;;;;4.35;100.00;99056.89;105144;1248;60845;-61
2023/02/18 00:24:14;;;;;;;45.40;23.50;;;;;;;4.33;100.00;99043.76;105507;1254;73325;-60
2023/02/18 00:26:43;;;;;;;44.90;24.40;;;;;;;4.33;100.00;99035.23;105160;1252;68009;-61
2023/02/18 00:29:11;;;;;;;41.80;25.00;;;;;;;4.32;100.00;99026.42;105007;1252;72736;-61
2023/02/18 00:31:44;;;;;;;43.80;24.30;;;;;;;4.33;100.00;99016.16;105263;1253;61618;-62
2023/02/18 00:34:13;;;;;;;40.00;23.40;;;;;;;4.33;100.00;99011.65;105210;1249;61672;-61
2023/02/18 00:36:41;;;;;;;46.70;25.60;;;;;;;4.32;100.00;98998.48;105139;1252;72435;-60
2023/02/18 00:39:11;;;;;;;50.70;26.70;;;;;;;4.34;100.00;98993.75;105127;1252;68240;-61
2023/02/18 00:41:40;;;;;;;49.00;25.80;;;;;;;4.35;100.00;98982.78;105306;1252;72160;-60
2023/02/18 00:44:10;;;;;;;53.50;26.30;;;;;;;4.37;100.00;98974.05;104872;1250;61715;-61
2023/02/18 00:46:38;;;;;;;48.50;25.30;;;;;;;4.38;100.00;98968.48;105089;1253;62279;-61
2023/02/18 00:49:07;;;;;;;51.20;27.00;;;;;;;4.38;100.00;98960.83;104956;1254;73902;-61
2023/02/18 00:51:36;;;;;;;48.80;26.60;;;;;;;4.41;100.00;98950.33;105155;1253;69501;-64
2023/02/18 00:54:05;;;;;;;54.60;27.10;;;;;;;4.40;100.00;98944.66;105221;1251;72304;-61
2023/02/18 00:56:33;;;;;;;51.30;27.20;;;;;;;4.39;100.00;98935.66;104807;1262;61740;-61
2023/02/18 00:59:01;;;;;;;53.40;29.00;;;;;;;4.40;100.00;98933.70;105137;1251;61691;-61
2023/02/18 01:01:30;;;;;;;53.60;29.20;;;;;;;4.40;100.00;98924.17;105114;1252;73001;-61
2023/02/18 01:03:59;;;;;;;50.90;27.60;;;;;;;4.39;100.00;98913.80;105249;1253;69297;-62
2023/02/18 01:06:27;;;;;;;50.30;26.90;;;;;;;4.39;100.00;98908.23;105078;1253;72038;-61
2023/02/18 01:08:56;;;;;;;47.90;26.50;;;;;;;4.40;100.00;98903.19;104822;1253;61788;-61
2023/02/18 01:11:24;;;;;;;51.70;26.90;;;;;;;4.38;100.00;98894.90;105232;1256;61606;-61
2023/02/18 01:13:53;;;;;;;53.40;27.10;;;;;;;4.34;100.00;98881.64;105232;1248;73436;-64
2023/02/18 01:16:22;;;;;;;56.60;28.40;;;;;;;4.39;100.00;98873.70;105222;1250;69117;-62
2023/02/18 01:18:52;;;;;;;53.80;26.90;;;;;;;4.36;100.00;98866.16;105088;1250;72199;-62
2023/02/18 01:21:20;;;;;;;50.30;27.40;;;;;;;4.40;100.00;98860.30;105123;1251;61679;-62
2023/02/18 01:23:49;;;;;;;54.00;28.10;;;;;;;4.35;100.00;98849.53;105221;1253;61595;-62
2023/02/18 01:26:17;;;;;;;55.30;29.30;;;;;;;4.34;100.00;98840.73;104704;1257;73534;-62
2023/02/18 01:28:47;;;;;;;52.50;28.00;;;;;;;4.33;100.00;98835.70;105032;1249;67735;-62
2023/02/18 01:31:15;;;;;;;49.60;27.70;;;;;;;4.35;100.00;98827.50;105244;1253;72225;-61
2023/02/18 01:33:45;;;;;;;50.90;27.70;;;;;;;4.38;100.00;98819.61;105179;1252;61724;-62
2023/02/18 01:36:13;;;;;;;50.50;27.60;;;;;;;4.39;100.00;98806.90;105135;1250;61588;-62
2023/02/18 01:38:42;;;;;;;51.70;29.10;;;;;;;4.38;100.00;98795.98;105272;1253;72767;-63
2023/02/18 01:41:10;;;;;;;53.80;28.10;;;;;;;4.37;100.00;98788.04;105206;1259;69061;-61
2023/02/18 01:43:38;;;;;;;50.30;27.60;;;;;;;4.38;100.00;98790.27;104829;1271;71984;-61
2023/02/18 01:46:18;;;;;;;50.60;28.30;;;;;;;4.38;100.00;98782.30;105291;1252;61938;-62
2023/02/18 01:48:47;;;;;;;52.20;29.10;;;;;;;4.35;100.00;98778.56;105185;1265;61087;-61
2023/02/18 01:51:16;;;;;;;45.60;25.40;;;;;;;4.39;100.00;98776.70;105093;1253;73200;-61
2023/02/18 01:53:55;;;;;;;46.60;26.00;;;;;;;4.42;100.00;98764.30;105160;1248;69538;-62
2023/02/18 01:56:47;;;;;;;45.20;25.10;;;;;;;4.39;100.00;98755.36;105201;1252;73204;-62
2023/02/18 01:59:17;;;;;;;44.40;25.00;;;;;;;4.36;100.00;98746.63;104957;1262;61785;-61
2023/02/18 02:01:46;;;;;;;47.30;24.90;;;;;;;4.29;100.00;98742.66;105242;1248;61686;-62
2023/02/18 02:04:14;;;;;;;51.00;26.00;;;;;;;4.30;100.00;98733.96;104825;1271;73280;-61
2023/02/18 02:06:42;;;;;;;37.60;23.10;;;;;;;4.28;100.00;98726.73;105113;1250;67857;-61
2023/02/18 02:09:13;;;;;;;43.50;24.80;;;;;;;4.21;100.00;98720.70;105215;1253;71311;-61
2023/02/18 02:11:55;;;;;;;45.80;26.10;;;;;;;4.20;100.00;98719.20;104692;1256;61563;-62
2023/02/18 02:14:29;;;;;;;42.00;24.50;;;;;;;4.19;100.00;98710.20;105020;1255;61649;-61
2023/02/18 02:17:14;;;;;;;44.10;25.80;;;;;;;4.16;100.00;98701.45;105087;1264;73417;-61
2023/02/18 02:20:02;;;;;;;43.50;25.50;;;;;;;4.20;100.00;98698.21;105363;1259;69044;-61
2023/02/18 02:22:39;;;;;;;44.30;23.90;;;;;;;4.13;100.00;98695.82;105205;1259;72915;-64
2023/02/18 02:25:11;;;;;;;40.70;23.60;;;;;;;4.13;100.00;98688.20;105009;1253;61584;-62
2023/02/18 02:28:09;;;;;;;42.80;23.30;;;;;;;4.05;100.00;98681.85;105033;1250;61603;-61
2023/02/18 02:31:00;;;;;;;38.40;22.50;;;;;;;4.01;100.00;98668.63;105098;1253;72558;-61
2023/02/18 02:33:55;;;;;;;40.10;23.70;;;;;;;3.95;100.00;98656.14;104874;1251;68807;-63
2023/02/18 02:36:43;;;;;;;40.90;22.90;;;;;;;3.90;100.00;98649.72;105411;1252;71533;-61
2023/02/18 02:39:17;;;;;;;;;;;;;;;3.88;100.00;98643.16;105312;1253;61597;-61
2023/02/18 02:42:01;;;;;;;36.00;21.70;;;;;;;3.81;100.00;98637.52;104802;1250;61670;-62
2023/02/18 02:44:35;;;;;;;37.70;22.50;;;;;;;3.74;100.00;98632.90;104872;1250;73509;-62
2023/02/18 02:47:30;;;;;;;36.90;21.40;;;;;;;3.77;100.00;98627.41;105187;1250;70053;-62
2023/02/18 02:50:09;;;;;;;36.90;20.70;;;;;;;3.75;100.00;98621.05;104888;1248;72258;-62
2023/02/18 02:52:44;;;;;;;36.70;22.70;;;;;;;3.75;100.00;98617.95;104722;1256;61686;-62
2023/02/18 02:55:12;;;;;;;34.60;22.30;;;;;;;3.82;100.00;98606.99;105000;1250;61703;-62
2023/02/18 02:57:43;;;;;;;39.80;23.00;;;;;;;3.84;100.00;98601.02;105103;1253;73315;-63
2023/02/18 03:00:17;;;;;;;37.40;22.50;;;;;;;3.80;100.00;98598.20;105177;1250;69752;-64
2023/02/18 03:03:15;;;;;;;37.90;22.40;;;;;;;3.81;100.00;98589.86;104859;1264;71600;-61
2023/02/18 03:05:46;;;;;;;36.50;22.30;;;;;;;3.83;100.00;98582.49;104785;1259;61692;-61
2023/02/18 03:08:31;;;;;;;38.80;23.20;;;;;;;3.82;100.00;98579.23;104820;1260;61686;-61
2023/02/18 03:11:13;;;;;;;34.00;21.00;;;;;;;3.86;100.00;98574.24;104768;1271;73156;-61
2023/02/18 03:13:51;;;;;;;36.00;21.30;;;;;;;3.86;100.00;98576.86;104858;1263;69619;-61
2023/02/18 03:16:46;;;;;;;34.20;21.00;;;;;;;3.88;100.00;98572.64;104915;1260;71783;-61
2023/02/18 03:19:27;;;;;;;39.20;21.70;;;;;;;3.90;100.00;98564.41;104787;1250;61686;-65
2023/02/18 03:22:00;;;;;;;36.60;22.80;;;;;;;3.93;100.00;98564.83;105225;1253;61696;-60
2023/02/18 03:24:32;;;;;;;35.40;22.40;;;;;;;3.94;100.00;98565.67;104677;1256;72645;-62
2023/02/18 03:27:09;;;;;;;38.50;22.50;;;;;;;3.98;100.00;98552.20;105171;1253;68548;-59
2023/02/18 03:29:37;;;;;;;31.70;21.00;;;;;;;4.02;100.00;98547.70;105166;1253;70899;-60
2023/02/18 03:32:07;;;;;;;33.20;21.30;;;;;;;4.04;100.00;98534.29;104650;1247;61615;-60
2023/02/18 03:34:38;;;;;;;33.80;19.50;;;;;;;4.03;100.00;98537.45;105029;1253;61693;-60
2023/02/18 03:37:09;;;;;;;36.90;21.50;;;;;;;4.02;100.00;98532.09;104604;1271;73406;-60
2023/02/18 03:39:39;;;;;;;33.10;21.20;;;;;;;4.04;100.00;98521.65;104707;1249;67672;-59
2023/02/18 03:42:08;;;;;;;36.30;21.90;;;;;;;4.03;100.00;98521.32;104889;1247;72704;-61
2023/02/18 03:44:36;;;;;;;34.10;22.10;;;;;;;4.06;100.00;98518.29;105335;1267;61165;-61
2023/02/18 03:47:05;;;;;;;40.10;22.60;;;;;;;4.01;100.00;98511.34;104752;1251;61701;-60
2023/02/18 03:49:33;;;;;;;30.70;20.20;;;;;;;4.02;100.00;98505.05;105333;1248;73878;-59
2023/02/18 03:52:02;;;;;;;34.70;21.60;;;;;;;4.04;100.00;98495.60;104853;1248;69778;-60
2023/02/18 03:54:32;;;;;;;31.30;19.80;;;;;;;4.07;100.00;98486.34;105312;1249;72574;-60
2023/02/18 03:57:01;;;;;;;30.40;19.90;;;;;;;4.10;100.00;98481.55;105345;1253;61589;-61
2023/02/18 03:59:31;;;;;;;33.30;20.40;;;;;;;4.16;100.00;98477.88;105341;1248;61574;-60
2023/02/18 04:01:59;;;;;;;34.60;20.90;;;;;;;4.13;100.00;98465.83;105301;1252;73475;-60
2023/02/18 04:04:28;;;;;;;31.90;20.20;;;;;;;4.15;100.00;98464.02;105241;1263;68183;-60
2023/02/18 04:06:57;;;;;;;32.20;20.60;;;;;;;4.18;100.00;98454.39;105367;1266;71863;-60
2023/02/18 04:09:30;;;;;;;31.20;19.10;;;;;;;4.15;100.00;98449.64;105015;1253;63228;-60
2023/02/18 04:11:59;;;;;;;32.30;20.20;;;;;;;4.14;100.00;98442.73;105311;1259;61569;-60
2023/02/18 04:14:27;;;;;;;31.60;19.90;;;;;;;4.16;100.00;98437.29;105355;1249;72185;-61
2023/02/18 04:17:00;;;;;;;29.70;18.50;;;;;;;4.16;100.00;98433.97;105529;1250;68287;-60
2023/02/18 04:19:28;;;;;;;29.40;18.90;;;;;;;4.15;100.00;98435.94;105418;1253;71926;-63
2023/02/18 04:22:01;;;;;;;29.80;19.00;;;;;;;4.15;100.00;98420.15;105248;1250;61701;-61
2023/02/18 04:24:29;;;;;;;28.30;18.50;;;;;;;4.19;100.00;98422.60;105314;1268;63206;-61
2023/02/18 04:26:57;;;;;;;31.40;19.60;;;;;;;4.24;100.00;98412.20;105418;1254;72276;-62
2023/02/18 04:29:26;;;;;;;27.00;17.60;;;;;;;4.26;100.00;98404.81;105234;1252;69089;-61
2023/02/18 04:31:54;;;;;;;28.50;17.70;;;;;;;4.29;100.00;98402.63;105274;1254;71438;-60
2023/02/18 04:34:23;;;;;;;27.20;17.60;;;;;;;4.31;100.00;98393.23;105119;1251;61592;-65
2023/02/18 04:36:51;;;;;;;24.40;17.20;;;;;;;4.32;100.00;98390.54;105294;1254;61671;-61
2023/02/18 04:39:19;;;;;;;24.20;16.10;;;;;;;4.33;100.00;98396.95;105318;1251;72784;-61
2023/02/18 04:41:47;;;;;;;22.00;15.30;;;;;;;4.39;100.00;98385.80;105493;1253;69090;-61
2023/02/18 04:44:17;;;;;;;27.00;16.30;;;;;;;4.44;100.00;98375.88;105471;1247;71260;-61
2023/02/18 04:46:45;;;;;;;23.20;16.70;;;;;;;4.46;100.00;98363.66;105287;1248;61717;-61
2023/02/18 04:49:14;;;;;;;23.70;15.60;;;;;;;4.44;100.00;98362.70;105418;1253;61564;-61
2023/02/18 04:51:42;;;;;;;23.00;15.30;;;;;;;4.49;100.00;98359.40;105208;1249;75288;-62
2023/02/18 04:54:13;;;;;;;24.10;15.70;;;;;;;4.52;100.00;98353.52;105179;1249;69868;-61
2023/02/18 04:56:41;;;;;;;22.80;14.80;;;;;;;4.54;100.00;98354.34;105087;1253;71129;-61
2023/02/18 04:59:10;;;;;;;24.70;15.70;;;;;;;4.59;100.00;98358.11;105218;1259;61691;-61
2023/02/18 05:01:39;;;;;;;23.30;15.40;;;;;;;4.62;100.00;98344.81;104940;1253;61647;-62
2023/02/18 05:04:07;;;;;;;23.80;16.30;;;;;;;4.64;100.00;98344.04;105238;1259;73768;-60
2023/02/18 05:06:38;;;;;;;24.70;16.60;;;;;;;4.67;100.00;98339.23;105203;1250;68809;-60
2023/02/18 05:09:07;;;;;;;22.00;14.80;;;;;;;4.71;100.00;98334.92;105143;1258;72927;-62
2023/02/18 05:11:35;;;;;;;21.90;14.40;;;;;;;4.70;100.00;98331.66;105219;1253;61567;-61
2023/02/18 05:14:04;;;;;;;22.90;14.70;;;;;;;4.67;100.00;98328.97;105118;1253;61670;-62
2023/02/18 05:16:35;;;;;;;21.80;15.10;;;;;;;4.70;100.00;98326.81;105343;1248;72876;-61
2023/02/18 05:19:04;;;;;;;23.20;15.40;;;;;;;4.76;100.00;98310.23;105008;1255;69033;-64
2023/02/18 05:21:32;;;;;;;21.50;14.10;;;;;;;4.81;100.00;98285.23;105007;1253;71822;-65
2023/02/18 05:24:01;;;;;;;20.50;14.00;;;;;;;4.85;100.00;98299.96;105115;1260;61703;-61
2023/02/18 05:26:29;;;;;;;19.40;13.50;;;;;;;4.92;100.00;98302.12;105007;1250;61608;-61
2023/02/18 05:28:58;;;;;;;21.50;14.40;;;;;;;4.94;100.00;98303.95;105002;1253;72815;-62
2023/02/18 05:31:26;;;;;;;19.80;13.20;;;;;;;4.97;100.00;98304.85;105024;1260;70691;-62
2023/02/18 05:33:55;;;;;;;19.70;13.40;;;;;;;5.03;100.00;98298.90;104964;1261;72195;-62
2023/02/18 05:36:23;;;;;;;21.10;13.80;;;;;;;5.08;100.00;98301.99;107556;1252;61558;-62
2023/02/18 05:38:56;;;;;;;18.50;13.20;;;;;;;5.14;100.00;98301.73;105029;1253;61674;-64
2023/02/18 05:41:24;;;;;;;20.60;13.70;;;;;;;5.18;100.00;98298.45;105024;1252;74444;-61
2023/02/18 05:46:40;;;;;;;17.10;12.60;;;;;;;5.28;100.00;98280.80;105056;1251;71083;-63
2023/02/18 05:49:08;;;;;;;20.00;13.60;;;;;;;5.35;100.00;98276.36;105081;1257;61665;-64
2023/02/18 05:51:37;;;;;;;18.20;13.20;;;;;;;5.40;100.00;98280.29;105125;1250;61700;-63
2023/02/18 05:54:06;;;;;;;17.70;12.80;;;;;;;5.47;100.00;98285.54;105102;1255;73288;-63
2023/02/18 05:56:34;;;;;;;21.40;12.60;;;;;;;5.47;100.00;98283.98;105251;1252;68822;-63
2023/02/18 05:59:03;;;;;;;18.80;12.60;;;;;;;5.54;100.00;98275.20;105119;1259;70964;-64
2023/02/18 06:01:31;;;;;;;17.50;12.20;;;;;;;5.59;100.00;98267.47;105088;1251;61614;-63
2023/02/18 06:04:00;;;;;;;16.90;12.60;;;;;;;5.66;100.00;98257.26;105188;1253;62023;-63
2023/02/18 06:06:31;;;;;;;14.60;10.70;;;;;;;5.69;100.00;98258.34;104966;1250;74387;-63
2023/02/18 06:09:00;;;;;;;16.80;12.10;;;;;;;5.72;100.00;98259.92;104897;1254;68194;-62
2023/02/18 06:11:29;;;;;;;16.50;11.50;;;;;;;5.75;100.00;98264.69;105015;1253;72216;-63
2023/02/18 06:13:57;;;;;;;15.30;11.30;;;;;;;5.83;100.00;98258.92;104911;1272;61606;-63
2023/02/18 06:16:26;;;;;;;14.50;10.70;;;;;;;5.88;100.00;98254.55;105186;1259;61698;-66
2023/02/18 06:18:54;;;;;;;15.60;10.50;;;;;;;5.89;100.00;98257.63;105281;1252;74203;-63
2023/02/18 06:21:23;;;;;;;11.80;10.00;;;;;;;5.95;100.00;98262.56;105085;1258;69843;-64
2023/02/18 06:23:55;;;;;;;14.90;10.30;;;;;;;6.02;100.00;98258.98;105182;1251;71336;-64
2023/02/18 06:26:25;;;;;;;13.10;10.00;;;;;;;6.03;100.00;98258.02;105239;1253;61701;-62
2023/02/18 06:28:54;;;;;;;15.40;10.80;;;;;;;6.04;100.00;98257.12;104866;1255;61705;-62
2023/02/18 06:31:22;;;;;;;13.90;10.00;;;;;;;6.12;100.00;98252.23;105390;1253;73096;-65
2023/02/18 06:33:52;;;;;;;13.30;9.70;;;;;;;6.21;100.00;98249.89;105341;1257;70122;-66
2023/02/18 06:36:21;;;;;;;13.30;9.50;;;;;;;6.27;100.00;98249.60;105271;1254;71526;-64
2023/02/18 06:38:49;;;;;;;11.60;8.50;;;;;;;6.34;100.00;98245.64;105155;1253;61759;-65
2023/02/18 06:41:18;;;;;;;10.70;7.80;;;;;;;6.42;100.00;98249.05;105477;1251;61798;-65
2023/02/18 06:43:47;;;;;;;8.30;6.90;;;;;;;6.52;100.00;98249.99;104982;1256;73229;-65
2023/02/18 06:46:15;;;;;;;8.30;6.90;;;;;;;6.65;100.00;98241.52;105235;1252;68873;-66
2023/02/18 06:48:44;;;;;;;8.10;7.20;;;;;;;6.66;100.00;98245.50;105074;1272;70824;-70
2023/02/18 06:51:14;;;;;;;8.40;7.40;;;;;;;6.78;100.00;98234.45;105735;1251;61681;-61
2023/02/18 06:53:43;;;;;;;8.50;6.80;;;;;;;6.89;100.00;98230.39;105386;1253;61560;-62
2023/02/18 06:56:11;;;;;;;7.10;6.40;;;;;;;7.04;100.00;98222.16;104955;1254;72705;-61
2023/02/18 06:58:39;;;;;;;8.40;6.60;;;;;;;7.13;100.00;98229.56;105374;1248;69821;-60
2023/02/18 07:01:08;;;;;;;7.20;6.10;;;;;;;7.31;100.00;98232.62;105484;1265;71959;-61
2023/02/18 07:03:36;;;;;;;9.20;6.80;;;;;;;7.47;100.00;98235.27;105277;1258;61721;-60
2023/02/18 07:06:06;;;;;;;7.60;6.60;;;;;;;7.52;100.00;98226.30;105427;1268;61564;-60
2023/02/18 07:08:37;;;;;;;8.20;6.50;;;;;;;7.57;100.00;98223.58;105304;1261;74341;-60
2023/02/18 07:11:06;;;;;;;8.20;6.60;;;;;;;7.74;100.00;98226.52;105212;1259;68471;-61
2023/02/18 07:13:35;;;;;;;6.70;6.00;;;;;;;7.82;100.00;98229.60;105590;1253;71797;-61
2023/02/18 07:16:04;;;;;;;7.20;6.40;;;;;;;7.93;100.00;98232.12;105139;1248;62216;-62
2023/02/18 07:18:33;;;;;;;6.90;6.10;;;;;;;8.15;100.00;98234.59;105370;1262;62248;-61
2023/02/18 07:21:01;;;;;;;6.80;5.30;;;;;;;8.28;100.00;98232.48;105204;1249;74030;-63
2023/02/18 07:23:29;;;;;;;6.30;5.50;;;;;;;8.36;100.00;98241.81;105437;1252;68456;-63
2023/02/18 07:26:10;;;;;;;5.90;5.40;;;;;;;8.27;100.00;98241.80;105189;1253;72308;-61
2023/02/18 07:28:39;;;;;;;6.00;5.40;;;;;;;8.28;100.00;98247.50;108645;1249;61157;-63
2023/02/18 07:31:07;;;;;;;5.90;5.20;;;;;;;8.26;100.00;98258.91;105287;1253;61673;-61
2023/02/18 07:33:36;;;;;;;5.50;4.70;;;;;;;8.27;100.00;98260.47;105359;1248;72887;-61
2023/02/18 07:36:06;;;;;;;4.20;3.80;;;;;;;8.24;100.00;98265.16;108582;1248;69507;-61
2023/02/18 07:38:35;;;;;;;4.50;3.40;;;;;;;8.25;100.00;98264.04;107381;1249;71670;-61
2023/02/18 07:41:03;;;;;;;3.70;3.30;;;;;;;8.23;100.00;98261.55;105860;1252;61659;-61
2023/02/18 07:43:32;;;;;;;3.50;3.10;;;;;;;8.26;100.00;98261.89;105162;1271;61673;-61
2023/02/18 07:46:05;;;;;;;3.80;2.90;;;;;;;8.30;100.00;98263.45;107680;1249;71904;-62
2023/02/18 07:48:34;;;;;;;3.10;2.60;;;;;;;8.25;100.00;98262.15;108987;1250;69727;-66
2023/02/18 07:51:09;;;;;;;2.90;2.00;;;;;;;8.25;100.00;98271.94;106035;1252;71266;-60
2023/02/18 07:53:38;;;;;;;2.50;1.40;;;;;;;8.24;100.00;98272.50;105410;1268;61075;-63
2023/02/18 07:56:06;;;;;;;3.10;1.40;;;;;;;8.19;100.00;98267.54;105418;1253;62028;-63
2023/02/18 07:58:36;;;;;;;3.60;1.90;;;;;;;8.16;100.00;98258.61;105366;1258;72913;-62
2023/02/18 08:01:08;;;;;;;1.70;1.10;;;;;;;8.11;100.00;98249.98;105169;1254;68797;-62
2023/02/18 08:03:37;;;;;;;2.20;1.20;;;;;;;8.10;100.00;98245.52;105231;1264;71805;-67
2023/02/18 08:06:07;;;;;;;3.30;1.20;;;;;;;8.02;100.00;98233.53;105045;1253;61726;-66
2023/02/18 08:08:37;;;;;;;3.20;1.70;;;;;;;8.06;100.00;98223.94;105193;1253;61752;-66
2023/02/18 08:11:06;;;;;;;2.20;1.10;;;;;;;8.19;100.00;98226.16;105111;1253;73531;-67
2023/02/18 08:13:47;;;;;;;1.90;1.10;;;;;;;8.34;100.00;98220.27;105341;1253;68620;-66
2023/02/18 08:16:16;;;;;;;1.80;1.30;;;;;;;8.44;100.00;98214.11;105141;1255;71259;-67
2023/02/18 08:18:46;;;;;;;4.70;1.20;;;;;;;8.56;100.00;98209.30;105011;1251;61702;-67
2023/02/18 08:21:15;;;;;;;3.50;1.50;;;;;;;8.65;100.00;98215.41;105145;1251;61694;-67
2023/02/18 08:23:44;;;;;;;3.30;1.60;;;;;;;8.73;100.00;98218.10;105180;1254;72362;-68
2023/02/18 08:26:13;;;;;;;2.90;1.30;;;;;;;8.77;100.00;98214.51;105246;1253;69766;-65
2023/02/18 08:28:45;;;;;;;1.60;1.30;;;;;;;8.81;100.00;98215.02;105106;1254;71560;-63
2023/02/18 08:31:18;;;;;;;1.90;1.30;;;;;;;8.81;100.00;98220.02;104766;1256;61019;-67
2023/02/18 08:35:06;;;;;;;2.80;2.00;;;;;;;8.42;100.00;98227.71;101785;1293;602129;-67
2023/02/18 08:37:35;;;;;;;3.10;1.50;;;;;;;8.71;100.00;98225.39;104161;1284;60409;-66
2023/02/18 08:40:21;;;;;;;3.20;2.40;;;;;;;8.78;100.00;98222.30;104323;1266;60506;-64
2023/02/18 08:42:50;;;;;;;5.10;2.70;;;;;;;8.84;100.00;98225.33;104265;1266;71986;-63
2023/02/18 08:45:18;;;;;;;2.80;2.00;;;;;;;8.89;100.00;98234.09;104067;1269;69525;-63
2023/02/18 08:47:47;;;;;;;2.30;1.80;;;;;;;8.90;100.00;98235.23;103994;1267;250934;-64
2023/02/18 08:50:36;;;;;;;5.80;1.90;;;;;;;8.90;100.00;98232.98;104309;1265;60470;-61
2023/02/18 08:53:04;;;;;;;2.50;1.80;;;;;;;8.96;100.00;98236.34;104544;1262;60587;-62
2023/02/18 08:55:39;;;;;;;6.90;2.10;;;;;;;9.00;100.00;98236.45;104332;1266;71084;-63
2023/02/18 08:58:07;;;;;;;3.10;2.20;;;;;;;8.92;100.00;98237.40;104234;1265;68347;-63
2023/02/18 09:00:36;;;;;;;3.80;2.00;;;;;;;8.97;100.00;98231.03;104151;1266;72236;-62
2023/02/18 09:03:05;;;;;;;4.00;2.30;;;;;;;9.01;100.00;98234.29;104533;1266;61200;-62
2023/02/18 09:05:34;;;;;;;3.20;2.20;;;;;;;8.96;100.00;98238.05;104434;1263;60805;-60
2023/02/18 09:08:02;;;;;;;2.60;1.80;;;;;;;8.95;100.00;98236.55;104427;1257;72215;-60
2023/02/18 09:10:30;;;;;;;2.90;1.90;;;;;;;8.94;100.00;98241.49;104935;1251;68803;-61
2023/02/18 09:12:59;;;;;;;4.00;2.40;;;;;;;8.91;100.00;98243.77;104754;1258;72376;-62
2023/02/18 09:15:28;;;;;;;6.90;2.40;;;;;;;8.90;100.00;98247.28;104661;1251;60825;-61
2023/02/18 09:17:56;;;;;;;3.20;2.30;;;;;;;8.92;100.00;98245.84;104963;1251;60837;-60
2023/02/18 09:20:25;;;;;;;4.60;2.40;;;;;;;9.05;100.00;98246.63;104921;1251;73642;-62
2023/02/18 09:22:53;;;;;;;3.10;2.00;;;;;;;9.08;100.00;98243.13;104957;1251;68283;-63
2023/02/18 09:25:22;;;;;;;4.60;2.20;;;;;;;9.07;100.00;98243.53;105040;1251;71341;-63
2023/02/18 09:27:50;;;;;;;2.60;1.80;;;;;;;9.02;100.00;98239.96;104969;1251;60966;-62
2023/02/18 09:30:19;;;;;;;4.40;2.00;;;;;;;9.01;100.00;98247.02;104966;1263;60879;-63
2023/02/18 09:32:48;;;;;;;2.30;2.00;;;;;;;9.02;100.00;98248.23;104952;1272;70936;-63
2023/02/18 09:35:16;;;;;;;2.20;1.80;;;;;;;9.09;100.00;98238.69;105020;1254;68372;-63
2023/02/18 09:37:46;;;;;;;3.00;2.00;;;;;;;9.10;100.00;98238.83;105027;1252;73023;-64
2023/02/18 09:40:27;;;;;;;7.50;2.40;;;;;;;9.01;100.00;98247.19;104542;1272;60872;-63
2023/02/18 09:42:56;;;;;;;3.80;2.00;;;;;;;9.10;100.00;98247.92;104935;1249;60807;-63
2023/02/18 09:45:25;;;;;;;4.00;2.00;;;;;;;9.19;100.00;98244.90;105074;1251;72514;-65
2023/02/18 09:47:54;;;;;;;3.20;1.80;;;;;;;9.17;100.00;98243.66;105197;1257;68315;-62
2023/02/18 09:50:28;;;;;;;4.30;1.80;;;;;;;9.18;100.00;98242.54;104985;1254;72165;-62
2023/02/18 09:52:59;;;;;;;3.10;2.10;;;;;;;9.15;100.00;98247.09;104868;1256;60902;-64
2023/02/18 09:55:30;;;;;;;4.40;1.80;;;;;;;9.13;100.00;98239.66;105063;1254;61078;-63
2023/02/18 09:58:18;;;;;;;4.90;1.60;;;;;;;9.13;100.00;98237.91;105118;1249;73039;-63
2023/02/18 10:00:53;;;;;;;3.00;1.50;;;;;;;9.11;100.00;98232.64;104741;1258;70162;-61
2023/02/18 10:03:43;;;;;;;3.80;1.80;;;;;;;9.17;100.00;98230.86;104557;1260;73306;-61
2023/02/18 10:06:14;;;;;;;2.50;1.70;;;;;;;9.21;100.00;98232.55;104575;1257;60894;-63
2023/02/18 10:08:45;;;;;;;5.00;2.20;;;;;;;9.20;100.00;98232.09;104825;1269;60869;-62
2023/02/18 10:11:28;;;;;;;3.70;2.00;;;;;;;9.27;100.00;98231.52;104657;1258;72429;-62
2023/02/18 10:13:59;;;;;;;4.90;1.90;;;;;;;9.19;100.00;98222.23;105284;1250;69673;-65
2023/02/18 10:16:29;;;;;;;3.80;1.70;;;;;;;9.25;100.00;98227.83;104561;1257;73772;-64
2023/02/18 10:19:02;;;;;;;3.90;2.10;;;;;;;9.23;100.00;98223.36;105244;1250;60840;-62
2023/02/18 10:21:34;;;;;;;4.40;1.80;;;;;;;9.36;100.00;98229.91;104718;1254;60866;-64
2023/02/18 10:24:30;;;;;;;3.70;1.50;;;;;;;9.33;100.00;98227.48;105170;1251;73649;-64
2023/02/18 10:26:58;;;;;;;4.60;1.90;;;;;;;9.40;100.00;98224.46;104645;1251;68848;-63
2023/02/18 10:29:29;;;;;;;2.50;1.40;;;;;;;9.50;100.00;98234.17;104699;1251;71889;-61
2023/02/18 10:32:11;;;;;;;4.10;2.00;;;;;;;9.65;100.00;98222.20;104789;1257;60810;-63
2023/02/18 10:34:49;;;;;;;4.20;1.80;;;;;;;9.84;100.00;98224.06;104684;1256;60755;-64
2023/02/18 10:37:55;;;;;;;3.40;1.70;;;;;;;9.87;100.00;98219.30;104955;1251;72555;-66
2023/02/18 10:40:45;;;;;;;6.50;1.90;;;;;;;10.03;100.00;98214.96;104599;1254;69291;-68
2023/02/18 10:43:18;;;;;;;3.00;1.20;;;;;;;10.24;100.00;98203.66;105032;1259;71821;-70
2023/02/18 10:46:12;;;;;;;2.40;1.20;;;;;;;10.49;100.00;98204.89;105287;1253;60790;-68
2023/02/18 10:48:57;;;;;;;2.40;1.40;;;;;;;10.72;100.00;98211.98;104635;1251;61346;-66
2023/02/18 10:51:32;;;;;;;2.30;1.30;;;;;;;10.72;100.00;98211.23;105308;1253;73637;-68
2023/02/18 10:54:00;;;;;;;3.30;1.20;;;;;;;10.71;100.00;98201.52;104554;1250;68831;-65
2023/02/18 10:56:39;;;;;;;3.20;1.60;;;;;;;10.61;100.00;98197.40;104738;1251;71162;-65
2023/02/18 10:59:13;;;;;;;2.80;1.10;;;;;;;10.64;100.00;98203.33;104703;1256;60852;-66
2023/02/18 11:01:42;;;;;;;5.20;1.30;;;;;;;10.53;100.00;98207.41;104725;1249;60826;-67
2023/02/18 11:04:15;;;;;;;5.90;1.30;;;;;;;10.35;100.00;98205.57;104844;1263;73368;-65
2023/02/18 11:06:45;;;;;;;2.20;1.40;;;;;;;10.34;100.00;98209.69;104926;1254;69974;-68
2023/02/18 11:09:25;;;;;;;3.50;1.50;;;;;;;10.27;100.00;98212.89;104673;1262;71926;-66
2023/02/18 11:12:02;;;;;;;4.20;1.60;;;;;;;10.10;100.00;98212.58;104949;1254;60862;-65
2023/02/18 11:14:44;;;;;;;2.10;0.90;;;;;;;10.06;100.00;98206.05;104801;1269;60858;-66
2023/02/18 11:17:26;;;;;;;3.20;1.50;;;;;;;10.12;100.00;98210.17;104928;1269;72446;-65
2023/02/18 11:20:00;;;;;;;2.70;1.80;;;;;;;10.11;100.00;98207.06;104497;1249;69705;-66
2023/02/18 11:22:32;;;;;;;2.50;1.30;;;;;;;10.08;100.00;98209.91;104680;1265;72273;-66
2023/02/18 11:25:03;;;;;;;2.40;1.40;;;;;;;10.05;100.00;98206.22;104904;1252;60731;-66
2023/02/18 11:27:43;;;;;;;5.50;1.80;;;;;;;10.01;100.00;98201.41;104791;1250;60885;-64
2023/02/18 11:30:26;;;;;;;2.30;1.40;;;;;;;10.02;100.00;98201.70;105007;1267;73562;-64
2023/02/18 11:32:57;;;;;;;2.60;1.60;;;;;;;10.04;100.00;98202.48;104644;1251;68300;-65
2023/02/18 11:35:27;;;;;;;3.30;1.60;;;;;;;9.89;100.00;98210.09;104883;1260;72002;-65
2023/02/18 11:37:56;;;;;;;4.10;1.50;;;;;;;9.70;100.00;98221.40;104661;1257;60875;-67
2023/02/18 11:40:33;;;;;;;2.70;1.50;;;;;;;9.56;100.00;98215.79;104757;1251;60793;-65
2023/02/18 11:43:08;;;;;;;3.00;1.20;;;;;;;9.56;100.00;98207.19;104860;1256;74076;-63